Terminal Aerodrome Forecast
Issued by NWS Pueblo, CO

Home | Current Version | Previous Version | Text Only | Print | Product List | Glossary On
Versions: 1 2 3 4 5 6 7 8 9 10 11 12 13 14 15 16 17 18 19 20 21 22 23 24 25 26 27 28 29 30 31 32 33 34 35
000
FTUS45 KPUB 302320
TAFCOS
TAF
KCOS 302320Z 3100/3124 30010KT P6SM VCSH FEW080 BKN110
     FM310200 36008KT P6SM FEW080 BKN140
     FM310500 04007KT P6SM SCT150
     FM311700 24013KT P6SM FEW120 SCT150
     FM312000 28018G28KT P6SM BKN120=

USA.gov is the U.S. government's official web portal to all federal, state and local government web resources and services.